Terminal Aerodrome Forecast
Issued by NWS

Home | Current Version | Previous Version | Text Only | Print | Product List | Glossary On
Versions: 1 2 3 4 5 6 7 8 9 10 11 12 13 14 15 16 17 18 19 20 21 22 23 24 25 26
000
FTUS43 KMKX 281743
TAFENW
TAF
KENW 281743Z 2818/2918 13006KT P6SM BKN070
     FM282000 10007KT P6SM VCSH BKN035 BKN045
     FM290000 06005KT P6SM -RA BKN020 OVC040
     FM290400 03007KT P6SM SCT015 OVC020
     FM291700 04015G23KT P6SM OVC040=

USA.gov is the U.S. government's official web portal to all federal, state and local government web resources and services.